createdAt,value
2023-04-10T00:18:48.876Z,5.60
2023-04-10T00:28:52.457Z,6.20
2023-04-10T00:38:57.074Z,6.37
2023-04-10T00:49:00.130Z,6.23
2023-04-10T00:59:07.021Z,5.87
2023-04-10T01:09:18.705Z,6.67
2023-04-10T01:19:36.288Z,5.53
2023-04-10T01:29:47.232Z,5.70
2023-04-10T01:39:56.524Z,6.37
2023-04-10T02:00:07.115Z,5.93
2023-04-10T02:10:26.324Z,6.07
2023-04-10T02:20:29.949Z,5.20
2023-04-10T02:30:34.536Z,5.57
2023-04-10T02:40:38.389Z,4.87
2023-04-10T02:50:51.485Z,5.10
2023-04-10T03:00:54.821Z,6.33
2023-04-10T03:11:09.296Z,6.30
2023-04-10T03:21:13.322Z,6.63
2023-04-10T03:31:18.026Z,6.33
2023-04-10T03:41:22.647Z,6.57
2023-04-10T03:51:29.533Z,7.03
2023-04-10T04:01:33.320Z,6.37
2023-04-10T04:22:16.328Z,5.27
2023-04-10T04:32:42.496Z,5.60
2023-04-10T04:43:02.153Z,6.03
2023-04-10T04:53:32.905Z,6.03
2023-04-10T05:03:54.816Z,7.43
2023-04-10T05:14:31.879Z,7.57
2023-04-10T05:24:46.368Z,6.57
2023-04-10T05:35:06.067Z,5.77
2023-04-10T05:45:41.697Z,6.07
2023-04-10T05:56:16.277Z,5.93
2023-04-10T06:06:33.018Z,5.90
2023-04-10T06:16:37.423Z,6.00
2023-04-10T06:26:40.824Z,5.00
2023-04-10T06:36:45.983Z,5.70
2023-04-10T06:46:49.247Z,5.83
2023-04-10T06:56:58.959Z,5.27
2023-04-10T07:07:02.331Z,6.03
2023-04-10T07:17:06.938Z,5.30
2023-04-10T07:27:10.025Z,5.13
2023-04-10T07:37:14.387Z,4.87
2023-04-10T07:47:18.383Z,4.20
2023-04-10T07:57:22.833Z,4.13
2023-04-10T08:07:25.936Z,4.07
2023-04-10T08:17:30.699Z,3.67
2023-04-10T08:27:33.859Z,4.00
2023-04-10T08:37:39.236Z,4.03
2023-04-10T08:47:45.385Z,3.70
2023-04-10T08:58:00.458Z,3.70
2023-04-10T09:08:04.744Z,3.33
2023-04-10T09:18:10.012Z,3.57
2023-04-10T09:28:13.828Z,3.63
2023-04-10T09:38:21.916Z,2.83
2023-04-10T09:48:27.406Z,3.17
2023-04-10T09:58:32.600Z,2.50
2023-04-10T10:08:38.380Z,2.27
2023-04-10T10:18:47.238Z,2.33
2023-04-10T10:28:53.167Z,2.00
2023-04-10T10:39:24.131Z,1.60
2023-04-10T10:49:52.948Z,2.00
2023-04-10T10:59:57.982Z,1.63
2023-04-10T11:10:01.168Z,1.47
2023-04-10T11:20:08.030Z,1.40
2023-04-10T11:30:29.561Z,1.30
2023-04-10T11:40:34.197Z,1.10
2023-04-10T11:50:37.492Z,0.90
2023-04-10T12:00:42.092Z,1.57
2023-04-10T12:10:48.363Z,1.10
2023-04-10T12:20:56.407Z,1.00
2023-04-10T12:30:59.614Z,1.13
2023-04-10T12:41:04.859Z,1.10
2023-04-10T12:51:08.494Z,1.20
2023-04-10T13:01:14.923Z,1.10
2023-04-10T13:11:18.535Z,1.40
2023-04-10T13:21:27.103Z,1.20
2023-04-10T13:31:30.480Z,1.17
2023-04-10T13:41:34.638Z,1.10
2023-04-10T13:51:37.652Z,1.00
2023-04-10T14:01:42.411Z,0.73
2023-04-10T14:11:45.540Z,0.80
2023-04-10T14:21:49.998Z,0.90
2023-04-10T14:31:57.960Z,0.80
2023-04-10T14:42:04.469Z,0.70
2023-04-10T14:52:07.657Z,1.23
2023-04-10T15:02:12.295Z,0.93
2023-04-10T15:12:16.784Z,1.00
2023-04-10T15:22:21.444Z,1.03
2023-04-10T15:32:24.745Z,2.23
2023-04-10T15:42:29.460Z,1.07
2023-04-10T15:52:33.991Z,1.00
2023-04-10T16:02:39.595Z,1.00
2023-04-10T16:12:43.389Z,1.20
2023-04-10T16:22:47.829Z,1.07
2023-04-10T16:32:51.200Z,3.03
2023-04-10T16:42:55.646Z,0.87
2023-04-10T16:52:59.602Z,1.10
2023-04-10T17:03:04.279Z,1.10
2023-04-10T17:13:07.320Z,1.40
2023-04-10T17:23:11.640Z,2.00
2023-04-10T17:33:14.812Z,1.13
2023-04-10T17:43:19.114Z,1.07
2023-04-10T17:53:22.181Z,1.00
2023-04-10T18:03:26.840Z,1.30
2023-04-10T18:13:30.098Z,1.97
2023-04-10T18:23:34.454Z,2.27
2023-04-10T18:33:37.477Z,1.03
2023-04-10T18:43:42.385Z,1.13
2023-04-10T18:53:48.153Z,1.00
2023-04-10T19:03:53.857Z,0.90
2023-04-10T19:13:57.380Z,0.80
2023-04-10T19:24:01.889Z,1.00
2023-04-10T19:34:09.323Z,1.00
2023-04-10T19:44:13.741Z,0.90
2023-04-10T19:54:17.784Z,0.80
2023-04-10T20:04:22.547Z,1.23
2023-04-10T20:14:26.203Z,1.00
2023-04-10T20:24:30.725Z,1.40
2023-04-10T20:34:33.945Z,0.70
2023-04-10T20:44:38.769Z,0.90
2023-04-10T20:54:41.684Z,0.70
2023-04-10T21:04:46.314Z,0.80
2023-04-10T21:14:49.446Z,0.50
2023-04-10T21:24:54.266Z,0.57
2023-04-10T21:34:57.415Z,0.57
2023-04-10T21:45:01.860Z,0.50
2023-04-10T21:55:06.331Z,0.50
2023-04-10T22:05:11.787Z,0.67
2023-04-10T22:15:14.860Z,0.70
2023-04-10T22:25:19.550Z,0.50
2023-04-10T22:35:22.609Z,0.50
2023-04-10T22:45:27.448Z,0.50
2023-04-10T22:55:31.537Z,0.40
2023-04-10T23:05:35.782Z,0.30
2023-04-10T23:15:38.904Z,0.20
2023-04-10T23:25:43.486Z,0.27
2023-04-10T23:35:46.815Z,0.30
2023-04-10T23:45:51.358Z,0.30
2023-04-10T23:55:54.335Z,0.40
